This is the latest recevied weather packets stored in our database for station/object WB4ZUT. If no packets are shown the sender has not sent any weather packets the latest 10 day(s).
| Time | Temp. | Humidity | Pressure | Rain* | Wind** | Luminosity | Snow |
|---|---|---|---|---|---|---|---|
| 1777675006 | 15.56° C | 50% | 1015.9 hPa | 0 mm | - | 70 W/m² | - |
| 1777674703 | 15.56° C | 50% | 1016 hPa | 0 mm | - | 116 W/m² | - |
| 1777674399 | 15° C | 51% | 1015.7 hPa | 0 mm | - | 79 W/m² | - |
| 1777674097 | 15.56° C | 51% | 1015.5 hPa | 0 mm | - | 89 W/m² | - |
| 1777673793 | 15° C | 51% | 1015.7 hPa | 0 mm | - | 203 W/m² | - |
| 1777673490 | 16.11° C | 51% | 1015.7 hPa | 0 mm | - | 76 W/m² | - |
| 1777673188 | 16.67° C | 49% | 1015.8 hPa | 0 mm | - | 356 W/m² | - |
| 1777672885 | 17.22° C | 48% | 1015.6 hPa | 0 mm | - | 388 W/m² | - |
| 1777672582 | 17.22° C | 46% | 1015.5 hPa | 0 mm | - | 426 W/m² | - |
| 1777672277 | 17.22° C | 46% | 1015.7 hPa | 0 mm | - | 457 W/m² | - |
| 1777671972 | 17.78° C | 46% | 1015.6 hPa | 0 mm | - | 542 W/m² | - |
| 1777671668 | 17.22° C | 49% | 1015.6 hPa | 0 mm | - | 512 W/m² | - |
| 1777671365 | 17.22° C | 47% | 1015.7 hPa | 0 mm | - | 508 W/m² | - |
| 1777671061 | 16.67° C | 46% | 1015.9 hPa | 0 mm | - | 493 W/m² | - |
| 1777670757 | 16.67° C | 46% | 1015.7 hPa | 0 mm | - | 168 W/m² | - |
| 1777670454 | 17.78° C | 45% | 1015.9 hPa | 0 mm | - | 557 W/m² | - |
| 1777670151 | 17.22° C | 47% | 1016 hPa | 0 mm | - | 585 W/m² | - |
| 1777669849 | 17.78° C | 44% | 1016 hPa | 0 mm | - | 392 W/m² | - |
| 1777669545 | 17.22° C | 46% | 1016 hPa | 0 mm | - | 594 W/m² | - |
| 1777669242 | 17.22° C | 43% | 1016.2 hPa | 0 mm | - | 582 W/m² | - |
| 1777668938 | 16.67° C | 49% | 1016.4 hPa | 0 mm | - | 627 W/m² | - |
| 1777668636 | 17.22° C | 45% | 1016.3 hPa | 0 mm | - | 654 W/m² | - |
| 1777668332 | 16.67° C | 46% | 1016.3 hPa | 0 mm | - | 614 W/m² | - |
| 1777668028 | 16.67° C | 47% | 1016.4 hPa | 0 mm | - | 587 W/m² | - |
| 1777667725 | 16.11° C | 46% | 1016.1 hPa | 0 mm | - | 279 W/m² | - |
* Rain latest hour (hover to see other rain measurements)
** Current wind speed in m/s (hover to see current wind gust speed)